Time;durP1;ratioP1;P1;durP2;ratioP2;P2;SDS_P1;SDS_P2;PMS_P1;PMS_P2;Temp;Humidity;BMP_temperature;BMP_pressure;BME280_temperature;BME280_humidity;BME280_pressure;Samples;Min_cycle;Max_cycle;Signal;HPM_P1;HPM_P2
2023/12/26 00:00:07;;;;;;;;;;;;;;;17.36;44.54;100685.78;5069103;28;1166;-48
2023/12/26 00:02:37;;;;;;;;;;;;;;;16.88;45.10;100683.41;5060497;28;2332;-46
2023/12/26 00:05:05;;;;;;;;;;;;;;;16.37;46.46;100685.13;5077036;28;1105;-49
2023/12/26 00:07:30;;;;;;;;;;;;;;;16.12;47.29;100690.56;5076543;28;1204;-48
2023/12/26 00:09:56;;;;;;;;;;;;;;;15.84;47.76;100688.06;5069922;28;988;-49
2023/12/26 00:12:24;;;;;;;;;;;;;;;17.36;44.34;100694.00;5076727;28;1897;-46
2023/12/26 00:14:50;;;;;;;;;;;;;;;17.00;44.83;100699.63;5067918;28;1182;-48
2023/12/26 00:17:16;;;;;;;;;;;;;;;16.33;46.42;100708.72;5070564;28;980;-47
2023/12/26 00:19:41;;;;;;;;;;;;;;;16.06;47.05;100711.69;5067263;28;1131;-48
2023/12/26 00:22:07;;;;;;;;;;;;;;;16.14;47.35;100718.56;5075802;28;913;-48
2023/12/26 00:24:32;;;;;;;;;;;;;;;17.63;43.79;100712.88;5077024;28;1102;-48
2023/12/26 00:26:58;;;;;;;;;;;;;;;16.87;45.23;100725.72;5063867;28;1054;-50
2023/12/26 00:29:26;;;;;;;;;;;;;;;16.33;46.70;100721.63;5067357;28;1092;-49
2023/12/26 00:31:51;;;;;;;;;;;;;;;16.03;47.41;100735.03;5070197;28;2491;-50
2023/12/26 00:34:17;;;;;;;;;;;;;;;15.84;47.66;100733.88;5067150;28;954;-48
2023/12/26 00:36:43;;;;;;;;;;;;;;;16.23;46.88;100745.19;5062326;28;1075;-49
2023/12/26 00:39:09;;;;;;;;;;;;;;;17.62;43.76;100739.53;5077160;28;1027;-46
2023/12/26 00:41:34;;;;;;;;;;;;;;;16.96;44.81;100740.56;5073689;28;1008;-50
2023/12/26 00:44:00;;;;;;;;;;;;;;;16.28;46.54;100747.13;5056899;28;1188;-49
2023/12/26 00:46:25;;;;;;;;;;;;;;;16.04;47.35;100753.09;5072285;28;876;-48
2023/12/26 00:48:51;;;;;;;;;;;;;;;15.93;47.56;100761.59;5076570;28;1102;-48
2023/12/26 00:51:17;;;;;;;;;;;;;;;17.43;44.09;100769.59;5058196;28;1913;-49
2023/12/26 00:53:43;;;;;;;;;;;;;;;16.92;45.15;100761.44;5076534;28;1524;-47
2023/12/26 00:56:09;;;;;;;;;;;;;;;16.33;46.67;100768.28;5074706;28;1032;-49
2023/12/26 00:58:35;;;;;;;;;;;;;;;15.99;47.26;100758.59;5057374;28;862;-49
2023/12/26 01:01:00;;;;;;;;;;;;;;;15.90;47.69;100768.41;5074508;28;2578;-50
2023/12/26 01:03:26;;;;;;;;;;;;;;;17.50;44.13;100768.47;5065481;28;1036;-46
2023/12/26 01:05:52;;;;;;;;;;;;;;;16.85;45.43;100764.44;5045595;28;1188;-50
2023/12/26 01:08:18;;;;;;;;;;;;;;;16.33;46.44;100771.81;5067664;28;1193;-47
2023/12/26 01:10:43;;;;;;;;;;;;;;;16.02;47.19;100776.41;5073631;28;921;-50
2023/12/26 01:13:09;;;;;;;;;;;;;;;15.83;47.70;100781.56;5065476;28;1910;-49
2023/12/26 01:15:35;;;;;;;;;;;;;;;17.08;44.85;100786.97;5058128;28;1330;-49
2023/12/26 01:18:00;;;;;;;;;;;;;;;17.32;44.17;100792.72;5058224;28;1117;-50
2023/12/26 01:20:26;;;;;;;;;;;;;;;16.46;46.51;100797.09;5073721;28;1194;-48
2023/12/26 01:22:52;;;;;;;;;;;;;;;16.15;47.04;100797.03;5065322;28;997;-47
2023/12/26 01:25:17;;;;;;;;;;;;;;;15.89;47.56;100796.94;5062791;28;1095;-48
2023/12/26 01:27:43;;;;;;;;;;;;;;;16.42;46.51;100799.56;5076170;28;1110;-47
2023/12/26 01:30:09;;;;;;;;;;;;;;;17.67;43.48;100788.22;5058018;28;1491;-47
2023/12/26 01:32:34;;;;;;;;;;;;;;;16.62;45.81;100804.25;5057526;28;2681;-48
2023/12/26 01:35:00;;;;;;;;;;;;;;;16.15;47.39;100802.53;5073809;28;1052;-47
2023/12/26 01:37:26;;;;;;;;;;;;;;;15.87;48.00;100812.84;5038614;28;1197;-46
2023/12/26 01:39:52;;;;;;;;;;;;;;;16.58;46.30;100811.41;5057802;28;1142;-45
2023/12/26 01:42:19;;;;;;;;;;;;;;;17.66;43.62;100799.50;5058141;28;1513;-44
2023/12/26 01:44:44;;;;;;;;;;;;;;;16.62;45.92;100801.53;5057225;28;1099;-46
2023/12/26 01:47:10;;;;;;;;;;;;;;;16.23;46.85;100805.56;5057649;28;999;-47
2023/12/26 01:49:36;;;;;;;;;;;;;;;15.98;47.72;100802.75;5062299;28;1238;-48
2023/12/26 01:52:02;;;;;;;;;;;;;;;15.82;47.81;100799.09;5037985;28;1905;-42
2023/12/26 01:54:28;;;;;;;;;;;;;;;17.26;44.61;100793.81;5027878;28;1613;-47
2023/12/26 01:56:54;;;;;;;;;;;;;;;16.98;45.03;100797.97;5056031;28;1160;-49
2023/12/26 01:59:20;;;;;;;;;;;;;;;16.32;46.60;100796.78;5038025;28;1095;-48
2023/12/26 02:01:46;;;;;;;;;;;;;;;16.16;46.96;100798.66;5055787;28;1851;-49
2023/12/26 02:04:11;;;;;;;;;;;;;;;16.26;46.96;100804.19;5057488;28;1078;-49
2023/12/26 02:06:37;;;;;;;;;;;;;;;17.67;43.67;100788.22;5056986;28;1233;-49
2023/12/26 02:09:05;;;;;;;;;;;;;;;16.71;45.82;100805.34;5075648;28;976;-50
2023/12/26 02:11:32;;;;;;;;;;;;;;;16.29;46.79;100813.81;5075413;28;1906;-44
2023/12/26 02:13:57;;;;;;;;;;;;;;;16.05;47.40;100809.63;5057677;28;1194;-47
2023/12/26 02:16:25;;;;;;;;;;;;;;;16.59;46.18;100811.13;5075492;28;1102;-48
2023/12/26 02:18:51;;;;;;;;;;;;;;;17.28;44.43;100808.94;5059753;28;1114;-47
2023/12/26 02:21:17;;;;;;;;;;;;;;;16.44;46.44;100816.59;5055455;28;1095;-49
2023/12/26 02:23:42;;;;;;;;;;;;;;;16.03;47.67;100805.47;5071393;28;1142;-50
2023/12/26 02:26:08;;;;;;;;;;;;;;;16.01;47.68;100797.53;5075671;28;1019;-50
2023/12/26 02:28:33;;;;;;;;;;;;;;;17.56;43.85;100803.09;5027564;28;1307;-50
2023/12/26 02:31:01;;;;;;;;;;;;;;;16.92;45.49;100805.38;5072727;28;2455;-50
2023/12/26 02:33:28;;;;;;;;;;;;;;;16.37;46.78;100816.03;5058533;28;1920;-49
2023/12/26 02:35:53;;;;;;;;;;;;;;;16.04;47.31;100821.66;5057365;28;1393;-47
2023/12/26 02:38:19;;;;;;;;;;;;;;;16.11;47.55;100824.16;5061716;28;1082;-49
2023/12/26 02:40:45;;;;;;;;;;;;;;;17.61;43.83;100830.56;5075362;28;1127;-48
2023/12/26 02:43:10;;;;;;;;;;;;;;;16.86;45.33;100831.19;5054964;28;1221;-50
2023/12/26 02:45:36;;;;;;;;;;;;;;;16.36;46.79;100830.84;5059904;28;1099;-49
2023/12/26 02:48:03;;;;;;;;;;;;;;;16.04;47.45;100835.38;5039722;28;1427;-48
2023/12/26 02:50:28;;;;;;;;;;;;;;;16.47;46.69;100831.69;5075230;28;1086;-49
2023/12/26 02:52:54;;;;;;;;;;;;;;;17.57;43.87;100815.72;5074607;28;1906;-49
2023/12/26 02:55:19;;;;;;;;;;;;;;;16.57;46.02;100824.28;5075565;28;1132;-49
2023/12/26 02:57:45;;;;;;;;;;;;;;;16.18;47.15;100818.44;5074859;28;1032;-50
2023/12/26 03:00:11;;;;;;;;;;;;;;;15.97;47.96;100820.28;5074767;28;1039;-47
2023/12/26 03:02:37;;;;;;;;;;;;;;;15.82;48.19;100819.13;5056183;28;2687;-51
2023/12/26 03:05:03;;;;;;;;;;;;;;;17.16;45.03;100815.81;5067036;28;1194;-49
2023/12/26 03:07:29;;;;;;;;;;;;;;;17.31;44.29;100814.97;5053809;28;1378;-50
2023/12/26 03:09:54;;;;;;;;;;;;;;;16.48;46.39;100812.19;5045977;28;1044;-50
2023/12/26 03:12:20;;;;;;;;;;;;;;;16.15;47.30;100808.00;5078322;28;1913;-51
2023/12/26 03:14:45;;;;;;;;;;;;;;;15.85;48.02;100815.00;5060885;28;1595;-46
2023/12/26 03:17:11;;;;;;;;;;;;;;;16.79;45.96;100828.72;5078444;28;1007;-48
2023/12/26 03:19:37;;;;;;;;;;;;;;;17.31;44.40;100831.47;5070136;28;1206;-48
2023/12/26 03:22:04;;;;;;;;;;;;;;;16.54;46.26;100832.25;5073297;28;1075;-51
2023/12/26 03:24:30;;;;;;;;;;;;;;;16.20;47.22;100841.78;5069205;28;1221;-51
2023/12/26 03:26:55;;;;;;;;;;;;;;;15.93;47.91;100838.38;5074254;28;1114;-49
2023/12/26 03:29:21;;;;;;;;;;;;;;;17.08;45.34;100845.50;5060559;28;1127;-51
2023/12/26 03:31:46;;;;;;;;;;;;;;;17.19;44.86;100842.75;5069553;28;1981;-50
2023/12/26 03:34:13;;;;;;;;;;;;;;;16.42;46.58;100846.22;5067062;28;1096;-48
2023/12/26 03:36:42;;;;;;;;;;;;;;;16.05;47.72;100858.16;5064018;28;1127;-45
2023/12/26 03:39:08;;;;;;;;;;;;;;;15.85;47.89;100865.22;5069452;28;1020;-51
2023/12/26 03:41:35;;;;;;;;;;;;;;;17.20;44.96;100860.88;5060456;28;1123;-51
2023/12/26 03:44:01;;;;;;;;;;;;;;;17.18;44.81;100865.81;5050872;28;1261;-50
2023/12/26 03:46:26;;;;;;;;;;;;;;;16.48;46.47;100871.75;5051104;28;1112;-52
2023/12/26 03:48:52;;;;;;;;;;;;;;;16.06;47.43;100873.50;5068994;28;1143;-47
2023/12/26 03:51:18;;;;;;;;;;;;;;;15.85;48.09;100876.19;5055722;28;1910;-48
2023/12/26 03:53:44;;;;;;;;;;;;;;;17.02;45.47;100884.22;5077810;28;1082;-50
2023/12/26 03:56:09;;;;;;;;;;;;;;;17.30;44.64;100893.03;5044446;28;1182;-50
2023/12/26 03:58:35;;;;;;;;;;;;;;;16.52;46.61;100892.91;5040947;28;1233;-50
2023/12/26 04:01:00;;;;;;;;;;;;;;;16.10;47.34;100893.03;5073452;28;1694;-50
2023/12/26 04:03:26;;;;;;;;;;;;;;;15.94;47.74;100892.13;5059960;28;1219;-50
2023/12/26 04:05:52;;;;;;;;;;;;;;;17.03;45.37;100899.63;5077774;28;1186;-52
2023/12/26 04:08:17;;;;;;;;;;;;;;;17.19;45.01;100894.94;5059388;28;1162;-53
2023/12/26 04:10:43;;;;;;;;;;;;;;;16.47;46.73;100900.31;5071665;28;1058;-54
2023/12/26 04:13:09;;;;;;;;;;;;;;;16.05;47.75;100902.88;5050154;28;1914;-51
2023/12/26 04:15:34;;;;;;;;;;;;;;;15.88;48.30;100905.00;5042356;28;1126;-51
2023/12/26 04:18:02;;;;;;;;;;;;;;;17.36;44.76;100905.66;5059516;28;1296;-54
2023/12/26 04:20:28;;;;;;;;;;;;;;;17.01;45.15;100904.56;5056345;28;1188;-52
2023/12/26 04:22:54;;;;;;;;;;;;;;;16.32;46.93;100903.81;5048823;28;1190;-53
2023/12/26 04:25:22;;;;;;;;;;;;;;;16.04;47.89;100909.44;5056195;28;1122;-52
2023/12/26 04:27:47;;;;;;;;;;;;;;;15.90;47.93;100911.84;5067002;28;1114;-50
2023/12/26 04:30:13;;;;;;;;;;;;;;;17.33;44.72;100915.28;5059100;28;1214;-51
2023/12/26 04:32:39;;;;;;;;;;;;;;;17.03;45.16;100911.44;5042866;28;2697;-53
2023/12/26 04:35:05;;;;;;;;;;;;;;;16.37;46.77;100906.59;5058079;28;1207;-50
2023/12/26 04:37:31;;;;;;;;;;;;;;;16.00;47.62;100919.28;5049974;28;1129;-51
2023/12/26 04:39:57;;;;;;;;;;;;;;;15.83;48.30;100915.91;5054266;28;1476;-50
2023/12/26 04:42:23;;;;;;;;;;;;;;;16.72;46.19;100925.06;5077677;28;999;-51
2023/12/26 04:44:49;;;;;;;;;;;;;;;17.42;44.29;100916.38;5043342;28;1124;-46
2023/12/26 04:47:14;;;;;;;;;;;;;;;16.51;46.60;100924.19;5057037;28;888;-57
2023/12/26 04:49:40;;;;;;;;;;;;;;;16.15;47.55;100920.47;5054228;28;1095;-58
2023/12/26 04:52:05;;;;;;;;;;;;;;;15.89;48.33;100934.03;5058832;28;1963;-56
2023/12/26 04:54:31;;;;;;;;;;;;;;;17.29;44.82;100925.16;5056466;28;1147;-53
2023/12/26 04:56:57;;;;;;;;;;;;;;;16.88;45.73;100928.69;5047794;28;1305;-53
2023/12/26 04:59:22;;;;;;;;;;;;;;;16.25;47.30;100929.56;5058290;28;1130;-55
2023/12/26 05:01:48;;;;;;;;;;;;;;;15.97;47.78;100925.31;5076484;28;1768;-52
2023/12/26 05:04:14;;;;;;;;;;;;;;;16.00;48.19;100927.53;5042773;28;1095;-52
2023/12/26 05:06:39;;;;;;;;;;;;;;;17.49;44.43;100931.75;5065454;28;1032;-52
2023/12/26 05:09:05;;;;;;;;;;;;;;;16.96;45.39;100943.00;5058470;28;1102;-51
2023/12/26 05:11:31;;;;;;;;;;;;;;;16.28;47.11;100930.13;5048672;28;1882;-50
2023/12/26 05:13:57;;;;;;;;;;;;;;;16.02;47.74;100936.31;5038838;28;1159;-51
2023/12/26 05:16:24;;;;;;;;;;;;;;;15.84;48.22;100936.78;5076468;28;1314;-50
2023/12/26 05:18:50;;;;;;;;;;;;;;;17.22;45.17;100941.09;5058180;28;1337;-50
2023/12/26 05:21:19;;;;;;;;;;;;;;;17.10;45.24;100939.44;5058287;28;1239;-51
2023/12/26 05:23:45;;;;;;;;;;;;;;;16.39;46.80;100938.13;5046184;28;1398;-50
2023/12/26 05:26:11;;;;;;;;;;;;;;;17.86;43.42;100942.44;5046098;28;1316;-53
2023/12/26 05:28:37;;;;;;;;;;;;;;;16.76;46.07;100939.09;5043786;28;1409;-52
2023/12/26 05:31:03;;;;;;;;;;;;;;;16.58;46.47;100934.94;5043115;28;2022;-54
2023/12/26 05:33:29;;;;;;;;;;;;;;;17.53;44.10;100943.84;5051740;28;1894;-54
2023/12/26 05:35:55;;;;;;;;;;;;;;;17.22;45.25;100936.47;5043321;28;1111;-52
2023/12/26 05:38:21;;;;;;;;;;;;;;;18.62;41.96;100934.22;5051995;28;1392;-52
2023/12/26 05:40:47;;;;;;;;;;;;;;;17.54;43.98;100942.75;5046982;28;1249;-52
2023/12/26 05:43:13;;;;;;;;;;;;;;;16.88;45.52;100938.84;5073703;28;1016;-50
2023/12/26 05:45:38;;;;;;;;;;;;;;;18.01;43.17;100938.06;5047622;28;1101;-51
2023/12/26 05:48:07;;;;;;;;;;;;;;;17.01;45.21;100937.50;5065191;28;1035;-51
2023/12/26 05:50:32;;;;;;;;;;;;;;;17.99;43.60;100935.56;5052585;28;1323;-53
2023/12/26 05:52:58;;;;;;;;;;;;;;;17.69;43.91;100939.19;5058117;28;1942;-57
2023/12/26 05:55:24;;;;;;;;;;;;;;;17.05;45.14;100933.94;5076367;28;1023;-56
2023/12/26 05:57:50;;;;;;;;;;;;;;;17.25;45.26;100941.41;5057934;28;1001;-55
2023/12/26 06:00:15;;;;;;;;;;;;;;;17.34;44.83;100938.09;5066238;28;1063;-55
2023/12/26 06:02:41;;;;;;;;;;;;;;;16.82;45.80;100943.50;5070410;28;2037;-57
2023/12/26 06:05:07;;;;;;;;;;;;;;;18.00;43.66;100944.66;5058099;28;1255;-56
2023/12/26 06:07:33;;;;;;;;;;;;;;;17.29;45.01;100947.16;5057905;28;1234;-57
2023/12/26 06:09:59;;;;;;;;;;;;;;;17.03;45.24;100955.38;5058167;28;1165;-56
2023/12/26 06:12:25;;;;;;;;;;;;;;;18.21;43.18;100957.22;5061377;28;1975;-56
2023/12/26 06:14:51;;;;;;;;;;;;;;;17.34;44.92;100960.91;5074667;28;1513;-51
2023/12/26 06:17:19;;;;;;;;;;;;;;;16.90;45.32;100944.91;5057984;28;1263;-53
2023/12/26 06:19:45;;;;;;;;;;;;;;;17.69;44.57;100962.00;5058187;28;1308;-53
2023/12/26 06:22:10;;;;;;;;;;;;;;;17.45;44.76;100959.00;5075827;28;1115;-54
2023/12/26 06:24:36;;;;;;;;;;;;;;;16.91;45.67;100960.28;5048671;28;1169;-51
2023/12/26 06:27:02;;;;;;;;;;;;;;;18.02;43.83;100957.03;5058168;28;1307;-54
2023/12/26 06:29:28;;;;;;;;;;;;;;;17.21;45.14;100958.72;5057781;28;1127;-51
2023/12/26 06:31:54;;;;;;;;;;;;;;;16.92;45.59;100967.44;5047943;28;1898;-55
2023/12/26 06:34:21;;;;;;;;;;;;;;;18.07;43.66;100957.00;5057333;28;1137;-54
2023/12/26 06:36:47;;;;;;;;;;;;;;;17.14;45.28;100955.38;5072558;28;930;-52
2023/12/26 06:39:13;;;;;;;;;;;;;;;16.82;45.45;100954.47;5075650;28;1035;-54
2023/12/26 06:41:40;;;;;;;;;;;;;;;17.86;44.00;100941.63;5060892;28;1275;-56
2023/12/26 06:44:05;;;;;;;;;;;;;;;17.28;45.52;100951.03;5061905;28;1185;-54
2023/12/26 06:46:31;;;;;;;;;;;;;;;18.85;42.00;100952.00;5079717;28;1031;-57
2023/12/26 06:48:57;;;;;;;;;;;;;;;18.11;43.22;100951.78;5054877;28;1146;-51
2023/12/26 06:51:23;;;;;;;;;;;;;;;17.40;44.73;100958.97;5061619;28;1439;-56
2023/12/26 06:53:48;;;;;;;;;;;;;;;17.14;44.82;100956.22;5061170;28;1909;-56
2023/12/26 06:56:14;;;;;;;;;;;;;;;18.32;43.32;100958.03;5061595;28;1106;-57
2023/12/26 06:58:39;;;;;;;;;;;;;;;17.41;45.07;100972.44;5079493;28;1167;-58
2023/12/26 07:01:13;;;;;;;;;;;;;;;16.99;45.47;100967.19;5044602;28;1775;-54
2023/12/26 07:03:39;;;;;;;;;;;;;;;16.79;45.13;100976.16;5052453;28;1099;-57
2023/12/26 07:06:04;;;;;;;;;;;;;;;18.27;43.45;100972.66;5079351;28;1106;-60
2023/12/26 07:08:30;;;;;;;;;;;;;;;17.49;45.11;100979.34;5078809;28;1223;-54
2023/12/26 07:10:55;;;;;;;;;;;;;;;16.99;45.57;100987.25;5065709;28;1066;-54
2023/12/26 07:13:21;;;;;;;;;;;;;;;16.79;45.40;100989.88;5069590;28;1910;-52
2023/12/26 07:15:47;;;;;;;;;;;;;;;18.15;43.81;100980.38;5075026;28;1166;-55
2023/12/26 07:18:13;;;;;;;;;;;;;;;17.20;45.46;100998.28;5069018;28;1294;-56
2023/12/26 07:20:38;;;;;;;;;;;;;;;16.99;45.50;100995.47;5048325;28;1431;-58
2023/12/26 07:23:04;;;;;;;;;;;;;;;18.24;43.80;100999.91;5078033;28;1043;-55
2023/12/26 07:25:31;;;;;;;;;;;;;;;17.31;45.15;100994.44;5065364;28;907;-53
2023/12/26 07:27:56;;;;;;;;;;;;;;;17.79;44.78;101000.50;5078836;28;1032;-53
2023/12/26 07:30:23;;;;;;;;;;;;;;;18.19;43.31;100999.91;5068616;28;1079;-52
2023/12/26 07:32:48;;;;;;;;;;;;;;;17.31;45.34;100996.38;5071630;28;2106;-55
2023/12/26 07:35:14;;;;;;;;;;;;;;;16.98;45.38;100999.31;5064765;28;1071;-60
2023/12/26 07:37:39;;;;;;;;;;;;;;;17.87;44.32;101012.06;5078315;28;989;-59
2023/12/26 07:40:05;;;;;;;;;;;;;;;17.44;45.26;101001.31;5053291;28;1044;-60
2023/12/26 07:42:31;;;;;;;;;;;;;;;18.52;42.92;101003.94;5078013;28;1191;-60
2023/12/26 07:44:57;;;;;;;;;;;;;;;18.25;43.25;100999.63;5045145;28;1290;-57
2023/12/26 07:47:22;;;;;;;;;;;;;;;16.08;49.40;101011.25;5068705;28;1144;-58
2023/12/26 07:49:48;;;;;;;;;;;;;;;18.79;42.37;101003.56;5071088;28;1444;-59
2023/12/26 07:52:14;;;;;;;;;;;;;;;16.07;48.39;100999.47;5067827;28;1976;-58
2023/12/26 07:54:39;;;;;;;;;;;;;;;16.81;47.59;101002.25;5066542;28;1293;-57
2023/12/26 07:57:05;;;;;;;;;;;;;;;18.66;42.61;101003.34;5077953;28;1015;-56
2023/12/26 07:59:31;;;;;;;;;;;;;;;17.54;45.14;100997.75;5073010;28;1202;-59
2023/12/26 08:01:57;;;;;;;;;;;;;;;17.16;45.40;100994.41;5064741;28;2304;-60
2023/12/26 08:04:22;;;;;;;;;;;;;;;17.01;45.29;100997.94;5074852;28;1072;-62
2023/12/26 08:06:48;;;;;;;;;;;;;;;18.13;43.84;100988.94;5077756;28;1039;-60
2023/12/26 08:09:13;;;;;;;;;;;;;;;17.33;45.24;101008.72;5075678;28;1024;-49
2023/12/26 08:11:39;;;;;;;;;;;;;;;17.12;45.48;101004.31;5076913;28;1918;-44
2023/12/26 08:14:05;;;;;;;;;;;;;;;17.90;44.14;101004.06;5075867;28;1333;-48
2023/12/26 08:16:30;;;;;;;;;;;;;;;17.18;45.61;101012.28;5070101;28;1007;-49
2023/12/26 08:18:57;;;;;;;;;;;;;;;16.97;45.31;101005.94;5072144;28;1064;-53
2023/12/26 08:21:23;;;;;;;;;;;;;;;16.90;45.58;101010.81;5075921;28;1147;-53
2023/12/26 08:23:49;;;;;;;;;;;;;;;18.20;43.64;101004.31;5076308;28;1131;-51
2023/12/26 08:26:14;;;;;;;;;;;;;;;17.18;45.79;101016.94;5075017;28;1111;-53
2023/12/26 08:28:41;;;;;;;;;;;;;;;17.04;45.87;101011.13;5076991;28;1076;-54
2023/12/26 08:31:07;;;;;;;;;;;;;;;18.14;43.65;101003.50;5067309;28;1848;-53
2023/12/26 08:33:35;;;;;;;;;;;;;;;17.28;45.34;101009.56;5073472;28;1906;-55
2023/12/26 08:36:01;;;;;;;;;;;;;;;16.97;45.39;101014.16;5070404;28;1155;-55
2023/12/26 08:38:28;;;;;;;;;;;;;;;17.04;45.66;101012.00;5073904;28;1092;-53
2023/12/26 08:40:54;;;;;;;;;;;;;;;17.88;44.36;101008.19;5073015;28;1112;-54
2023/12/26 08:43:19;;;;;;;;;;;;;;;17.08;45.98;101009.50;5069975;28;1074;-51
2023/12/26 08:45:45;;;;;;;;;;;;;;;16.97;45.40;101013.31;5070707;28;1215;-53
2023/12/26 08:48:10;;;;;;;;;;;;;;;17.54;45.28;101017.81;5064481;28;1043;-49
2023/12/26 08:50:36;;;;;;;;;;;;;;;17.49;45.14;101011.47;5071126;28;1019;-51
2023/12/26 08:53:02;;;;;;;;;;;;;;;17.09;45.98;101020.22;5076810;28;2066;-53
2023/12/26 08:55:28;;;;;;;;;;;;;;;18.62;42.95;101012.16;5073050;28;1050;-50
2023/12/26 08:57:53;;;;;;;;;;;;;;;17.48;45.25;101015.34;5076411;28;1103;-54
2023/12/26 09:00:19;;;;;;;;;;;;;;;17.03;45.53;101010.31;5071840;28;1050;-51
2023/12/26 09:02:45;;;;;;;;;;;;;;;17.12;45.62;101007.06;5069570;28;1791;-47
2023/12/26 09:05:11;;;;;;;;;;;;;;;17.84;44.76;101002.44;5069562;28;1082;-52
2023/12/26 09:07:37;;;;;;;;;;;;;;;17.14;45.57;101005.69;5075425;28;1130;-51
2023/12/26 09:10:03;;;;;;;;;;;;;;;17.04;45.71;101009.25;5071422;28;1007;-45
2023/12/26 09:12:29;;;;;;;;;;;;;;;18.51;43.40;101001.47;5071204;28;1988;-52
2023/12/26 09:14:54;;;;;;;;;;;;;;;17.94;44.63;101007.94;5064270;28;1114;-48
2023/12/26 09:17:20;;;;;;;;;;;;;;;19.34;41.57;101001.91;5043759;28;1178;-51
2023/12/26 09:19:45;;;;;;;;;;;;;;;15.68;50.29;100991.47;5074054;28;1088;-48
2023/12/26 09:22:11;;;;;;;;;;;;;;;18.31;44.26;100986.66;5074505;28;1172;-49
2023/12/26 09:24:37;;;;;;;;;;;;;;;17.77;44.86;100991.69;5072558;28;1000;-50
2023/12/26 09:27:02;;;;;;;;;;;;;;;16.70;48.25;100986.84;5074896;28;1160;-54
2023/12/26 09:29:28;;;;;;;;;;;;;;;19.05;42.37;100984.13;5076464;28;1031;-48
2023/12/26 09:31:54;;;;;;;;;;;;;;;15.74;49.86;100984.09;5071592;28;2041;-47
2023/12/26 09:34:19;;;;;;;;;;;;;;;18.13;44.83;100974.31;5076123;28;1094;-50
2023/12/26 09:36:45;;;;;;;;;;;;;;;18.47;43.43;100971.75;5074756;28;1096;-51
2023/12/26 09:39:11;;;;;;;;;;;;;;;16.36;48.73;100977.09;5076604;28;1023;-45
2023/12/26 09:41:36;;;;;;;;;;;;;;;17.08;46.26;100968.28;5076244;28;1139;-48
2023/12/26 09:44:02;;;;;;;;;;;;;;;17.08;45.91;100966.38;5076029;28;1110;-46
2023/12/26 09:46:28;;;;;;;;;;;;;;;17.04;45.18;100959.78;5058236;28;1115;-51
2023/12/26 09:48:54;;;;;;;;;;;;;;;16.85;45.29;100958.63;5071422;28;1102;-53
2023/12/26 09:51:22;;;;;;;;;;;;;;;16.82;45.12;100956.41;5069945;28;1160;-54
2023/12/26 09:53:52;;;;;;;;;;;;;;;18.38;43.97;100959.66;5068292;28;1930;-55
2023/12/26 09:56:18;;;;;;;;;;;;;;;17.24;45.88;100952.66;5049212;28;1188;-55
2023/12/26 09:58:44;;;;;;;;;;;;;;;17.02;46.10;100952.91;5073623;28;1008;-55
2023/12/26 10:01:11;;;;;;;;;;;;;;;16.96;45.49;100954.81;5055562;28;1901;-54
2023/12/26 10:03:37;;;;;;;;;;;;;;;17.81;45.18;100944.38;5075677;28;1055;-52
2023/12/26 10:06:03;;;;;;;;;;;;;;;17.51;45.84;100951.56;5075929;28;1108;-54
2023/12/26 10:08:28;;;;;;;;;;;;;;;17.11;46.03;100948.53;5057736;28;1064;-52
2023/12/26 10:10:54;;;;;;;;;;;;;;;16.92;45.94;100940.78;5069331;28;1159;-50
2023/12/26 10:13:20;;;;;;;;;;;;;;;18.03;44.77;100944.91;5069062;28;1918;-53
2023/12/26 10:15:46;;;;;;;;;;;;;;;17.23;46.09;100935.34;5076771;28;1070;-52
2023/12/26 10:18:11;;;;;;;;;;;;;;;17.04;45.98;100937.81;5075349;28;1206;-55
2023/12/26 10:20:37;;;;;;;;;;;;;;;16.84;45.86;100941.28;5073124;28;1246;-53
2023/12/26 10:23:06;;;;;;;;;;;;;;;16.68;45.64;100937.69;5073443;28;1250;-56
2023/12/26 10:25:31;;;;;;;;;;;;;;;17.90;44.99;100928.97;5077351;28;1183;-55
2023/12/26 10:27:58;;;;;;;;;;;;;;;17.35;45.94;100926.00;5068799;28;1322;-55
2023/12/26 10:30:24;;;;;;;;;;;;;;;17.50;46.07;100926.00;5082119;28;1159;-56
2023/12/26 10:33:02;;;;;;;;;;;;;;;18.35;43.97;100913.41;5080111;28;2145;-53
2023/12/26 10:35:28;;;;;;;;;;;;;;;17.29;46.21;100914.16;5068137;28;1108;-54
2023/12/26 10:37:53;;;;;;;;;;;;;;;17.09;45.86;100909.50;5069727;28;1047;-56
2023/12/26 10:40:19;;;;;;;;;;;;;;;17.11;46.08;100904.56;5076185;28;1218;-53
2023/12/26 10:42:45;;;;;;;;;;;;;;;17.70;45.57;100905.91;5071620;28;1371;-54
2023/12/26 10:45:10;;;;;;;;;;;;;;;17.12;46.12;100900.72;5053081;28;1095;-54
2023/12/26 10:47:36;;;;;;;;;;;;;;;16.90;46.35;100895.47;5064085;28;1071;-55
2023/12/26 10:50:03;;;;;;;;;;;;;;;16.86;46.30;100899.84;5081571;28;835;-55
2023/12/26 10:52:29;;;;;;;;;;;;;;;17.94;44.86;100888.81;5082161;28;1917;-55
2023/12/26 10:54:59;;;;;;;;;;;;;;;17.14;46.53;100890.28;5081856;28;1039;-55
2023/12/26 10:57:25;;;;;;;;;;;;;;;16.92;46.29;100893.28;5081451;28;1412;-55
2023/12/26 13:51:37;;;;;;;;;;;;;;;17.37;46.92;100797.38;5067022;28;1004;-49
2023/12/26 13:54:21;;;;;;;;;;;;;;;17.27;47.10;100800.97;5075155;28;1905;-47
2023/12/26 13:57:06;;;;;;;;;;;;;;;16.84;47.15;100803.16;5076115;28;1150;-45
2023/12/26 13:59:50;;;;;;;;;;;;;;;16.75;46.50;100798.22;5076107;28;1008;-47
2023/12/26 14:02:35;;;;;;;;;;;;;;;17.64;46.37;100802.50;5063345;28;2215;-48
2023/12/26 14:05:19;;;;;;;;;;;;;;;16.96;47.22;100795.50;5063027;28;1035;-49
2023/12/26 14:08:05;;;;;;;;;;;;;;;16.72;46.95;100804.25;5075790;28;1212;-49
2023/12/26 14:10:49;;;;;;;;;;;;;;;17.79;46.53;100799.72;5075682;28;1031;-48
2023/12/26 14:13:33;;;;;;;;;;;;;;;17.26;47.13;100799.31;5063982;28;1988;-47
2023/12/26 14:16:23;;;;;;;;;;;;;;;17.10;47.36;100799.31;5071592;28;1213;-47
2023/12/26 14:19:06;;;;;;;;;;;;;;;17.97;45.85;100800.22;5075802;28;1062;-46
2023/12/26 14:21:51;;;;;;;;;;;;;;;17.25;47.08;100803.16;5065731;28;989;-42
2023/12/26 14:24:35;;;;;;;;;;;;;;;16.87;47.01;100797.94;5069460;28;1126;-45
2023/12/26 14:27:19;;;;;;;;;;;;;;;16.77;46.29;100809.75;5068329;28;1091;-47
2023/12/26 14:30:04;;;;;;;;;;;;;;;18.20;45.83;100803.41;5064759;28;1258;-45
2023/12/26 14:32:48;;;;;;;;;;;;;;;17.19;47.16;100796.84;5064955;28;1981;-47
2023/12/26 14:35:32;;;;;;;;;;;;;;;16.89;46.78;100801.28;5068685;28;1297;-44
2023/12/26 14:38:16;;;;;;;;;;;;;;;16.72;46.26;100793.28;5061984;28;1360;-41
2023/12/26 14:41:00;;;;;;;;;;;;;;;18.10;46.05;100796.00;5068227;28;1312;-48
2023/12/26 14:43:45;;;;;;;;;;;;;;;17.32;47.18;100798.22;5064720;28;1179;-47
2023/12/26 14:46:30;;;;;;;;;;;;;;;16.95;47.23;100793.84;5063177;28;1368;-46
2023/12/26 14:49:14;;;;;;;;;;;;;;;16.66;46.60;100797.13;5069074;28;1315;-47
2023/12/26 14:51:58;;;;;;;;;;;;;;;17.90;46.59;100792.22;5068800;28;1111;-43
2023/12/26 14:54:42;;;;;;;;;;;;;;;17.21;47.29;100796.59;5061739;28;1293;-47
2023/12/26 14:57:26;;;;;;;;;;;;;;;16.80;47.33;100791.88;5060719;28;1289;-42
2023/12/26 15:00:11;;;;;;;;;;;;;;;16.92;47.31;100791.66;5066240;28;1185;-44
2023/12/26 15:02:37;;;;;;;;;;;;;;;17.96;46.35;100793.06;5069551;28;2342;-46
2023/12/26 15:05:02;;;;;;;;;;;;;;;17.19;47.36;100793.28;5063262;28;1163;-45
2023/12/26 15:07:28;;;;;;;;;;;;;;;16.88;47.20;100790.53;5068990;28;1289;-45
2023/12/26 15:09:54;;;;;;;;;;;;;;;16.75;46.57;100789.97;5064308;28;1288;-46
2023/12/26 15:12:19;;;;;;;;;;;;;;;17.32;47.12;100791.88;5070801;28;1970;-45
2023/12/26 15:14:45;;;;;;;;;;;;;;;17.59;47.17;100795.09;5064135;28;1341;-45
2023/12/26 15:17:11;;;;;;;;;;;;;;;16.93;47.67;100790.56;5071092;28;1083;-43
2023/12/26 15:19:37;;;;;;;;;;;;;;;17.10;47.53;100787.53;5066767;28;1442;-47
2023/12/26 15:22:03;;;;;;;;;;;;;;;17.65;46.95;100787.66;5067802;28;1270;-43
2023/12/26 15:24:28;;;;;;;;;;;;;;;17.02;47.49;100788.91;5065958;28;1226;-45
2023/12/26 15:26:54;;;;;;;;;;;;;;;16.79;47.06;100793.00;5075467;28;1312;-46
2023/12/26 15:29:20;;;;;;;;;;;;;;;17.43;47.54;100790.75;5066336;28;1196;-42
2023/12/26 15:31:46;;;;;;;;;;;;;;;17.09;47.65;100783.94;5072806;28;2335;-45
2023/12/26 15:34:11;;;;;;;;;;;;;;;16.82;47.45;100788.91;5062640;28;1399;-44
2023/12/26 15:36:37;;;;;;;;;;;;;;;17.26;47.65;100788.31;5066418;28;1317;-45
2023/12/26 15:39:03;;;;;;;;;;;;;;;17.43;47.57;100780.59;5066740;28;1095;-48